createdAt,value
2022-10-19T00:02:13.553Z,100.00
2022-10-19T00:04:41.327Z,100.00
2022-10-19T00:07:09.041Z,100.00
2022-10-19T00:09:36.778Z,100.00
2022-10-19T00:12:06.213Z,100.00
2022-10-19T00:14:33.926Z,100.00
2022-10-19T00:17:01.730Z,100.00
2022-10-19T00:19:29.708Z,100.00
2022-10-19T00:21:57.458Z,100.00
2022-10-19T00:24:25.355Z,100.00
2022-10-19T00:26:53.104Z,100.00
2022-10-19T00:29:22.204Z,100.00
2022-10-19T00:31:50.648Z,100.00
2022-10-19T00:34:18.727Z,100.00
2022-10-19T00:36:46.581Z,100.00
2022-10-19T00:39:16.339Z,100.00
2022-10-19T00:41:45.937Z,100.00
2022-10-19T00:44:50.867Z,100.00
2022-10-19T00:47:24.443Z,100.00
2022-10-19T00:49:53.332Z,100.00
2022-10-19T00:52:23.104Z,100.00
2022-10-19T00:54:53.691Z,100.00
2022-10-19T00:57:22.094Z,100.00
2022-10-19T00:59:50.707Z,100.00
2022-10-19T01:02:19.787Z,100.00
2022-10-19T01:04:51.751Z,100.00
2022-10-19T01:07:20.309Z,100.00
2022-10-19T01:09:48.006Z,100.00
2022-10-19T01:12:32.425Z,100.00
2022-10-19T01:15:12.888Z,100.00
2022-10-19T01:17:51.920Z,100.00
2022-10-19T01:20:50.799Z,100.00
2022-10-19T01:23:54.186Z,100.00
2022-10-19T01:26:42.129Z,100.00
2022-10-19T01:29:18.494Z,100.00
2022-10-19T01:31:52.060Z,100.00
2022-10-19T01:34:26.645Z,100.00
2022-10-19T01:37:01.807Z,100.00
2022-10-19T01:39:36.382Z,100.00
2022-10-19T01:42:11.092Z,100.00
2022-10-19T01:44:44.774Z,100.00
2022-10-19T01:47:19.896Z,100.00
2022-10-19T01:49:52.144Z,100.00
2022-10-19T01:52:22.914Z,100.00
2022-10-19T01:54:52.916Z,100.00
2022-10-19T01:57:27.527Z,100.00
2022-10-19T01:59:56.809Z,100.00
2022-10-19T02:02:28.089Z,100.00
2022-10-19T02:04:58.699Z,100.00
2022-10-19T02:07:27.025Z,100.00
2022-10-19T02:09:54.714Z,100.00
2022-10-19T02:12:23.684Z,100.00
2022-10-19T02:14:57.580Z,100.00
2022-10-19T02:17:29.965Z,100.00
2022-10-19T02:19:59.105Z,100.00
2022-10-19T02:22:26.750Z,100.00
2022-10-19T02:24:54.588Z,100.00
2022-10-19T02:27:22.873Z,100.00
2022-10-19T02:29:50.893Z,100.00
2022-10-19T02:32:18.764Z,100.00
2022-10-19T02:34:47.927Z,100.00
2022-10-19T02:37:15.784Z,100.00
2022-10-19T02:39:43.718Z,100.00
2022-10-19T02:42:15.952Z,100.00
2022-10-19T02:44:49.665Z,100.00
2022-10-19T02:47:22.056Z,100.00
2022-10-19T02:49:53.006Z,100.00
2022-10-19T02:52:20.934Z,100.00
2022-10-19T02:54:49.132Z,100.00
2022-10-19T02:57:19.552Z,100.00
2022-10-19T02:59:47.881Z,100.00
2022-10-19T03:02:16.612Z,100.00
2022-10-19T03:04:44.718Z,100.00
2022-10-19T03:07:15.705Z,100.00
2022-10-19T03:09:43.631Z,100.00
2022-10-19T03:12:11.903Z,100.00
2022-10-19T03:14:39.684Z,100.00
2022-10-19T03:17:07.625Z,100.00
2022-10-19T03:19:36.401Z,100.00
2022-10-19T03:22:05.029Z,100.00
2022-10-19T03:24:34.404Z,100.00
2022-10-19T03:27:02.054Z,100.00
2022-10-19T03:29:29.850Z,100.00
2022-10-19T03:31:57.592Z,100.00
2022-10-19T03:34:25.351Z,100.00
2022-10-19T03:36:53.516Z,100.00
2022-10-19T03:39:21.255Z,100.00
2022-10-19T03:41:50.472Z,100.00
2022-10-19T03:44:18.251Z,100.00
2022-10-19T03:46:46.026Z,100.00
2022-10-19T03:49:13.768Z,100.00
2022-10-19T03:51:41.505Z,100.00
2022-10-19T03:54:13.107Z,100.00
2022-10-19T03:56:40.798Z,100.00
2022-10-19T03:59:14.143Z,100.00
2022-10-19T04:01:43.740Z,100.00
2022-10-19T04:04:14.764Z,100.00
2022-10-19T04:06:44.908Z,100.00
2022-10-19T04:09:14.939Z,100.00
2022-10-19T04:11:43.293Z,100.00
2022-10-19T04:14:19.237Z,100.00
2022-10-19T04:16:54.922Z,100.00
2022-10-19T04:19:22.560Z,100.00
2022-10-19T04:21:50.925Z,100.00
2022-10-19T04:24:19.952Z,100.00
2022-10-19T04:26:49.049Z,100.00
2022-10-19T04:29:20.128Z,100.00
2022-10-19T04:31:50.013Z,100.00
2022-10-19T04:34:18.847Z,100.00
2022-10-19T04:36:46.559Z,100.00
2022-10-19T04:39:14.288Z,100.00
2022-10-19T04:41:42.062Z,100.00
2022-10-19T04:44:10.733Z,100.00
2022-10-19T04:46:39.805Z,100.00
2022-10-19T04:49:07.703Z,100.00
2022-10-19T04:51:35.627Z,100.00
2022-10-19T04:54:04.035Z,100.00
2022-10-19T04:56:32.349Z,100.00
2022-10-19T04:59:01.576Z,100.00
2022-10-19T05:01:31.709Z,100.00
2022-10-19T05:04:02.596Z,100.00
2022-10-19T05:06:31.094Z,100.00
2022-10-19T05:08:59.116Z,100.00
2022-10-19T05:11:27.304Z,100.00
2022-10-19T05:13:55.136Z,100.00
2022-10-19T05:16:24.535Z,100.00
2022-10-19T05:18:56.107Z,100.00
2022-10-19T05:21:27.120Z,100.00
2022-10-19T05:23:56.028Z,100.00
2022-10-19T05:26:25.213Z,100.00
2022-10-19T05:28:56.845Z,100.00
2022-10-19T05:31:26.423Z,100.00
2022-10-19T05:33:56.096Z,100.00
2022-10-19T05:36:27.462Z,100.00
2022-10-19T05:38:57.344Z,100.00
2022-10-19T05:41:26.345Z,100.00
2022-10-19T05:43:55.138Z,100.00
2022-10-19T05:46:23.120Z,100.00
2022-10-19T05:48:50.816Z,100.00
2022-10-19T05:51:21.054Z,100.00
2022-10-19T05:53:50.528Z,100.00
2022-10-19T05:56:20.387Z,100.00
2022-10-19T05:58:48.616Z,100.00
2022-10-19T06:01:18.912Z,100.00
2022-10-19T06:03:46.986Z,100.00
2022-10-19T06:06:14.787Z,100.00
2022-10-19T06:08:42.563Z,100.00
2022-10-19T06:11:13.739Z,100.00
2022-10-19T06:13:42.244Z,100.00
2022-10-19T06:16:11.834Z,100.00
2022-10-19T06:18:39.530Z,100.00
2022-10-19T06:21:09.332Z,100.00
2022-10-19T06:23:37.474Z,100.00
2022-10-19T06:26:08.231Z,100.00
2022-10-19T06:28:38.400Z,100.00
2022-10-19T06:31:08.565Z,100.00
2022-10-19T06:33:37.495Z,100.00
2022-10-19T06:36:08.752Z,100.00
2022-10-19T06:38:36.468Z,100.00
2022-10-19T06:41:04.943Z,100.00
2022-10-19T06:43:32.827Z,100.00
2022-10-19T06:46:05.223Z,100.00
2022-10-19T06:48:33.031Z,100.00
2022-10-19T06:51:01.879Z,100.00
2022-10-19T06:53:30.299Z,100.00
2022-10-19T06:55:59.431Z,100.00
2022-10-19T06:58:27.338Z,100.00
2022-10-19T07:00:58.621Z,100.00
2022-10-19T07:03:29.289Z,100.00
2022-10-19T07:05:58.388Z,100.00
2022-10-19T07:08:27.287Z,100.00
2022-10-19T07:10:56.403Z,100.00
2022-10-19T07:13:24.572Z,100.00
2022-10-19T07:15:58.388Z,100.00
2022-10-19T07:18:27.800Z,100.00
2022-10-19T07:20:56.592Z,100.00
2022-10-19T07:23:25.200Z,100.00
2022-10-19T07:25:53.930Z,100.00
2022-10-19T07:28:22.579Z,100.00
2022-10-19T07:30:50.279Z,100.00
2022-10-19T07:35:46.939Z,100.00
2022-10-19T07:38:14.584Z,100.00
2022-10-19T07:40:44.927Z,100.00
2022-10-19T07:43:15.874Z,100.00
2022-10-19T07:45:43.598Z,100.00
2022-10-19T07:48:11.418Z,100.00
2022-10-19T07:50:39.267Z,100.00
2022-10-19T07:53:08.445Z,100.00
2022-10-19T07:55:36.187Z,100.00
2022-10-19T07:58:03.850Z,100.00
2022-10-19T08:00:31.705Z,100.00
2022-10-19T08:03:43.238Z,100.00
2022-10-19T08:05:47.314Z,100.00
2022-10-19T08:08:16.399Z,100.00
2022-10-19T08:10:44.261Z,100.00
2022-10-19T08:13:12.047Z,100.00
2022-10-19T08:15:39.808Z,100.00
2022-10-19T08:18:07.526Z,100.00
2022-10-19T08:20:35.369Z,100.00
2022-10-19T08:23:03.210Z,100.00
2022-10-19T08:25:32.344Z,100.00
2022-10-19T08:27:59.980Z,100.00
2022-10-19T08:30:27.845Z,100.00
2022-10-19T08:32:55.670Z,100.00
2022-10-19T08:35:23.542Z,100.00
2022-10-19T08:37:51.700Z,100.00
2022-10-19T08:40:24.828Z,100.00
2022-10-19T08:42:59.223Z,100.00
2022-10-19T08:48:23.600Z,100.00
2022-10-19T08:50:51.400Z,100.00
2022-10-19T08:53:25.385Z,100.00
2022-10-19T08:56:05.401Z,100.00
2022-10-19T08:58:54.657Z,100.00
2022-10-19T09:01:37.550Z,100.00
2022-10-19T09:04:11.383Z,100.00
2022-10-19T09:06:49.876Z,100.00
2022-10-19T09:09:20.985Z,100.00
2022-10-19T09:11:52.295Z,100.00
2022-10-19T09:14:27.063Z,100.00
2022-10-19T09:16:57.934Z,100.00
2022-10-19T09:19:30.852Z,100.00
2022-10-19T09:22:03.047Z,100.00
2022-10-19T09:24:37.150Z,100.00
2022-10-19T09:27:07.006Z,100.00
2022-10-19T09:29:42.521Z,100.00
2022-10-19T09:32:15.648Z,100.00
2022-10-19T09:34:47.528Z,100.00
2022-10-19T09:37:23.226Z,100.00
2022-10-19T09:39:54.858Z,100.00
2022-10-19T09:42:25.850Z,100.00
2022-10-19T09:44:56.432Z,100.00
2022-10-19T09:47:35.257Z,98.96
2022-10-19T09:50:19.040Z,100.00
2022-10-19T09:52:47.908Z,100.00
2022-10-19T09:55:27.484Z,100.00
2022-10-19T09:58:02.368Z,100.00
2022-10-19T10:00:37.127Z,94.25
2022-10-19T10:03:06.077Z,94.58
2022-10-19T10:05:35.974Z,93.89
2022-10-19T10:08:04.079Z,95.77
2022-10-19T10:10:38.490Z,94.52
2022-10-19T10:13:07.086Z,97.79
2022-10-19T10:15:44.930Z,93.79
2022-10-19T10:18:16.590Z,95.13
2022-10-19T10:20:58.474Z,90.85
2022-10-19T10:23:28.346Z,94.31
2022-10-19T10:25:57.943Z,89.83
2022-10-19T10:28:27.570Z,92.19
2022-10-19T10:31:02.233Z,89.61
2022-10-19T10:33:46.094Z,90.94
2022-10-19T10:36:14.311Z,91.95
2022-10-19T10:38:46.015Z,92.09
2022-10-19T10:41:17.661Z,93.74
2022-10-19T10:43:53.524Z,86.86
2022-10-19T10:46:28.241Z,90.33
2022-10-19T10:48:59.313Z,90.83
2022-10-19T10:51:34.257Z,86.43
2022-10-19T10:54:16.069Z,86.07
2022-10-19T10:56:45.219Z,87.36
2022-10-19T10:59:20.536Z,85.27
2022-10-19T11:02:04.086Z,88.34
2022-10-19T11:04:36.917Z,88.46
2022-10-19T11:07:17.694Z,87.38
2022-10-19T11:09:50.718Z,85.27
2022-10-19T11:12:25.129Z,86.11
2022-10-19T11:14:58.770Z,85.12
2022-10-19T11:17:30.952Z,89.13
2022-10-19T11:19:58.644Z,87.58
2022-10-19T11:22:30.734Z,89.83
2022-10-19T11:25:16.958Z,89.31
2022-10-19T11:27:54.930Z,88.82
2022-10-19T11:30:24.990Z,88.12
2022-10-19T11:33:07.041Z,85.77
2022-10-19T11:35:46.861Z,88.24
2022-10-19T11:38:49.505Z,84.39
2022-10-19T11:41:27.042Z,84.76
2022-10-19T11:44:17.348Z,88.04
2022-10-19T11:46:55.954Z,87.57
2022-10-19T11:49:41.875Z,87.51
2022-10-19T11:52:17.795Z,88.29
2022-10-19T11:54:59.349Z,82.97
2022-10-19T11:57:32.321Z,83.47
2022-10-19T12:00:14.741Z,82.76
2022-10-19T12:03:02.828Z,85.37
2022-10-19T12:05:40.172Z,83.63
2022-10-19T12:08:23.016Z,83.95
2022-10-19T12:11:01.965Z,82.09
2022-10-19T12:13:42.928Z,82.75
2022-10-19T12:16:12.857Z,83.76
2022-10-19T12:18:42.919Z,82.30
2022-10-19T12:21:20.821Z,77.79
2022-10-19T12:23:49.891Z,79.57
2022-10-19T12:26:19.768Z,79.29
2022-10-19T12:28:50.592Z,81.00
2022-10-19T12:31:19.637Z,80.14
2022-10-19T12:33:51.705Z,80.02
2022-10-19T12:36:30.063Z,81.46
2022-10-19T12:39:03.872Z,79.40
2022-10-19T12:41:39.161Z,82.52
2022-10-19T12:44:22.421Z,80.82
2022-10-19T12:46:53.823Z,79.57
2022-10-19T12:49:48.853Z,81.47
2022-10-19T12:52:37.266Z,77.17
2022-10-19T12:55:14.057Z,74.70
2022-10-19T12:57:47.925Z,77.47
2022-10-19T13:00:22.311Z,77.50
2022-10-19T13:02:59.379Z,77.34
2022-10-19T13:05:29.679Z,77.47
2022-10-19T13:08:02.108Z,76.08
2022-10-19T13:10:33.346Z,74.14
2022-10-19T13:13:03.095Z,76.20
2022-10-19T13:15:51.844Z,74.81
2022-10-19T13:19:07.612Z,76.17
2022-10-19T13:21:46.802Z,71.63
2022-10-19T13:24:28.331Z,72.69
2022-10-19T13:27:35.793Z,73.76
2022-10-19T13:30:03.800Z,69.99
2022-10-19T13:32:42.888Z,72.38
2022-10-19T13:35:31.386Z,72.26
2022-10-19T13:38:26.205Z,72.89
2022-10-19T13:41:05.379Z,71.89
2022-10-19T13:43:35.743Z,72.89
2022-10-19T13:46:11.825Z,72.71
2022-10-19T13:49:07.250Z,71.66
2022-10-19T13:51:44.396Z,73.17
2022-10-19T13:54:26.230Z,73.29
2022-10-19T13:57:10.396Z,75.07
2022-10-19T14:00:03.273Z,75.45
2022-10-19T14:02:56.084Z,74.90
2022-10-19T14:05:53.631Z,75.13
2022-10-19T14:08:37.065Z,76.55
2022-10-19T14:11:07.600Z,75.43
2022-10-19T14:13:36.820Z,74.40
2022-10-19T14:16:04.949Z,77.38
2022-10-19T14:18:34.685Z,73.50
2022-10-19T14:21:04.239Z,75.88
2022-10-19T14:23:34.200Z,75.87
2022-10-19T14:26:04.342Z,75.31
2022-10-19T14:28:33.239Z,77.57
2022-10-19T14:31:05.096Z,76.56
2022-10-19T14:33:35.258Z,77.98
2022-10-19T14:36:03.804Z,80.14
2022-10-19T14:38:36.612Z,79.60
2022-10-19T14:41:05.679Z,79.67
2022-10-19T14:43:35.450Z,78.38
2022-10-19T14:46:16.204Z,80.20
2022-10-19T14:48:46.315Z,82.18
2022-10-19T14:51:29.684Z,80.83
2022-10-19T14:54:02.309Z,82.52
2022-10-19T14:56:34.667Z,83.63
2022-10-19T14:59:06.018Z,82.81
2022-10-19T15:01:36.650Z,82.80
2022-10-19T15:04:05.293Z,83.16
2022-10-19T15:06:35.731Z,84.98
2022-10-19T15:09:12.093Z,84.80
2022-10-19T15:11:49.866Z,86.25
2022-10-19T15:14:21.833Z,86.03
2022-10-19T15:16:54.966Z,86.03
2022-10-19T15:19:29.407Z,85.84
2022-10-19T15:22:15.719Z,85.88
2022-10-19T15:24:59.540Z,87.82
2022-10-19T15:27:32.980Z,87.46
2022-10-19T15:30:02.767Z,87.17
2022-10-19T15:32:37.865Z,88.51
2022-10-19T15:35:17.441Z,88.52
2022-10-19T15:37:46.654Z,89.02
2022-10-19T15:40:21.647Z,88.10
2022-10-19T15:42:49.408Z,88.64
2022-10-19T15:45:35.939Z,89.11
2022-10-19T15:48:28.589Z,89.74
2022-10-19T15:50:57.915Z,89.13
2022-10-19T15:53:26.248Z,89.67
2022-10-19T15:55:54.058Z,91.19
2022-10-19T15:58:21.701Z,91.10
2022-10-19T16:00:49.498Z,91.89
2022-10-19T16:03:17.372Z,92.90
2022-10-19T16:05:47.151Z,93.31
2022-10-19T16:08:14.856Z,92.88
2022-10-19T16:10:42.517Z,93.68
2022-10-19T16:13:10.118Z,94.61
2022-10-19T16:15:37.903Z,95.13
2022-10-19T16:18:05.479Z,95.12
2022-10-19T16:20:33.270Z,95.25
2022-10-19T16:23:02.370Z,95.36
2022-10-19T16:25:30.133Z,95.99
2022-10-19T16:27:57.901Z,96.84
2022-10-19T16:30:25.603Z,96.58
2022-10-19T16:32:53.296Z,97.94
2022-10-19T16:35:21.055Z,97.72
2022-10-19T16:37:48.842Z,98.48
2022-10-19T16:40:18.255Z,98.61
2022-10-19T16:42:46.016Z,100.00
2022-10-19T16:45:13.828Z,99.69
2022-10-19T16:47:41.673Z,98.78
2022-10-19T16:50:11.329Z,100.00
2022-10-19T16:52:39.165Z,99.83
2022-10-19T16:55:08.270Z,100.00
2022-10-19T16:57:37.483Z,100.00
2022-10-19T17:00:09.414Z,100.00
2022-10-19T17:02:41.831Z,100.00
2022-10-19T17:05:12.177Z,100.00
2022-10-19T17:07:40.022Z,100.00
2022-10-19T17:10:08.464Z,100.00
2022-10-19T17:12:40.762Z,100.00
2022-10-19T17:15:40.856Z,100.00
2022-10-19T17:17:58.078Z,100.00
2022-10-19T17:20:25.808Z,100.00
2022-10-19T17:22:53.781Z,100.00
2022-10-19T17:25:21.584Z,100.00
2022-10-19T17:27:52.968Z,100.00
2022-10-19T17:30:21.003Z,100.00
2022-10-19T17:32:48.738Z,100.00
2022-10-19T17:35:16.461Z,100.00
2022-10-19T17:37:44.121Z,100.00
2022-10-19T17:40:12.769Z,100.00
2022-10-19T17:42:40.441Z,100.00
2022-10-19T17:45:11.078Z,100.00
2022-10-19T17:47:38.760Z,100.00
2022-10-19T17:50:07.340Z,100.00
2022-10-19T17:52:35.036Z,100.00
2022-10-19T17:55:18.247Z,100.00
2022-10-19T17:57:46.091Z,100.00
2022-10-19T18:00:15.937Z,100.00
2022-10-19T18:02:45.683Z,100.00
2022-10-19T18:05:13.613Z,100.00
2022-10-19T18:07:43.459Z,100.00
2022-10-19T18:10:11.200Z,100.00
2022-10-19T18:12:39.149Z,100.00
2022-10-19T18:15:07.464Z,100.00
2022-10-19T18:17:36.997Z,100.00
2022-10-19T18:20:05.923Z,100.00
2022-10-19T18:22:33.600Z,100.00
2022-10-19T18:25:01.262Z,100.00
2022-10-19T18:27:28.896Z,100.00
2022-10-19T18:29:56.575Z,100.00
2022-10-19T18:32:24.371Z,100.00
2022-10-19T18:34:53.565Z,100.00
2022-10-19T18:37:21.273Z,100.00
2022-10-19T18:39:48.963Z,100.00
2022-10-19T18:42:17.825Z,100.00
2022-10-19T18:44:47.305Z,100.00
2022-10-19T18:47:15.044Z,100.00
2022-10-19T18:49:42.696Z,100.00
2022-10-19T18:52:11.865Z,100.00
2022-10-19T18:54:39.790Z,100.00
2022-10-19T18:57:07.565Z,100.00
2022-10-19T18:59:35.303Z,100.00
2022-10-19T19:02:03.074Z,100.00
2022-10-19T19:04:31.112Z,100.00
2022-10-19T19:06:58.787Z,100.00
2022-10-19T19:09:27.814Z,100.00
2022-10-19T19:11:58.030Z,100.00
2022-10-19T19:14:26.594Z,100.00
2022-10-19T19:16:54.380Z,100.00
2022-10-19T19:19:24.412Z,100.00
2022-10-19T19:21:52.222Z,100.00
2022-10-19T19:24:21.883Z,100.00
2022-10-19T19:26:52.702Z,100.00
2022-10-19T19:29:22.045Z,100.00
2022-10-19T19:31:49.810Z,100.00
2022-10-19T19:34:17.721Z,100.00
2022-10-19T19:36:48.053Z,100.00
2022-10-19T19:39:18.554Z,100.00
2022-10-19T19:41:46.812Z,100.00
2022-10-19T19:44:15.954Z,100.00
2022-10-19T19:46:43.696Z,100.00
2022-10-19T19:49:11.920Z,100.00
2022-10-19T19:51:39.625Z,100.00
2022-10-19T19:54:07.258Z,100.00
2022-10-19T19:56:36.761Z,100.00
2022-10-19T19:59:04.499Z,100.00
2022-10-19T20:01:34.365Z,100.00
2022-10-19T20:06:37.439Z,100.00
2022-10-19T20:09:06.297Z,100.00
2022-10-19T20:11:37.156Z,100.00
2022-10-19T20:14:07.451Z,100.00
2022-10-19T20:16:36.983Z,100.00
2022-10-19T20:19:07.549Z,100.00
2022-10-19T20:21:35.428Z,100.00
2022-10-19T20:24:03.247Z,100.00
2022-10-19T20:26:31.218Z,100.00
2022-10-19T20:28:59.486Z,100.00
2022-10-19T20:33:57.457Z,100.00
2022-10-19T20:36:26.970Z,100.00
2022-10-19T20:38:56.298Z,100.00
2022-10-19T20:41:26.419Z,100.00
2022-10-19T20:43:54.970Z,100.00
2022-10-19T20:46:24.347Z,100.00
2022-10-19T20:48:52.998Z,100.00
2022-10-19T20:51:27.522Z,100.00
2022-10-19T20:53:59.934Z,100.00
2022-10-19T20:56:29.016Z,100.00
2022-10-19T20:58:57.907Z,100.00
2022-10-19T21:01:26.158Z,100.00
2022-10-19T21:03:56.587Z,100.00
2022-10-19T21:06:27.017Z,100.00
2022-10-19T21:08:54.814Z,100.00
2022-10-19T21:11:24.372Z,100.00
2022-10-19T21:13:54.496Z,100.00
2022-10-19T21:16:24.451Z,100.00
2022-10-19T21:18:52.311Z,100.00
2022-10-19T21:21:22.263Z,100.00
2022-10-19T21:23:54.152Z,100.00
2022-10-19T21:26:22.053Z,100.00
2022-10-19T21:28:53.000Z,100.00
2022-10-19T21:31:21.798Z,100.00
2022-10-19T21:33:50.814Z,100.00
2022-10-19T21:36:19.806Z,100.00
2022-10-19T21:38:48.345Z,100.00
2022-10-19T21:41:22.280Z,100.00
2022-10-19T21:43:53.318Z,100.00
2022-10-19T21:46:22.731Z,100.00
2022-10-19T21:48:50.710Z,100.00
2022-10-19T21:51:24.968Z,100.00
2022-10-19T21:53:52.760Z,100.00
2022-10-19T21:56:21.851Z,100.00
2022-10-19T21:58:50.684Z,100.00
2022-10-19T22:01:20.070Z,100.00
2022-10-19T22:03:47.922Z,100.00
2022-10-19T22:06:15.870Z,100.00
2022-10-19T22:08:49.193Z,100.00
2022-10-19T22:11:17.053Z,100.00
2022-10-19T22:13:46.534Z,100.00
2022-10-19T22:16:16.204Z,100.00
2022-10-19T22:18:43.902Z,100.00
2022-10-19T22:21:14.395Z,100.00
2022-10-19T22:23:42.534Z,100.00
2022-10-19T22:26:14.987Z,100.00
2022-10-19T22:28:43.082Z,100.00
2022-10-19T22:31:13.329Z,100.00
2022-10-19T22:33:41.691Z,100.00
2022-10-19T22:36:11.279Z,100.00
2022-10-19T22:38:38.956Z,100.00
2022-10-19T22:41:06.671Z,100.00
2022-10-19T22:43:34.475Z,100.00
2022-10-19T22:46:02.267Z,100.00
2022-10-19T22:48:31.327Z,100.00
2022-10-19T22:50:58.973Z,100.00
2022-10-19T22:53:26.791Z,100.00
2022-10-19T22:55:54.516Z,100.00
2022-10-19T22:58:22.285Z,100.00
2022-10-19T23:01:03.457Z,100.00
2022-10-19T23:03:32.851Z,100.00
2022-10-19T23:06:00.574Z,100.00
2022-10-19T23:08:29.157Z,100.00
2022-10-19T23:10:57.045Z,100.00
2022-10-19T23:13:25.262Z,100.00
2022-10-19T23:15:52.960Z,100.00
2022-10-19T23:18:20.765Z,100.00
2022-10-19T23:20:57.395Z,100.00
2022-10-19T23:23:25.725Z,100.00
2022-10-19T23:26:01.451Z,100.00
2022-10-19T23:28:29.567Z,100.00
2022-10-19T23:30:58.485Z,100.00
2022-10-19T23:33:27.107Z,100.00
2022-10-19T23:35:56.147Z,100.00
2022-10-19T23:38:23.896Z,100.00
2022-10-19T23:40:51.639Z,100.00
2022-10-19T23:43:19.422Z,100.00
2022-10-19T23:45:47.068Z,100.00
2022-10-19T23:48:14.777Z,100.00
2022-10-19T23:50:42.576Z,100.00
2022-10-19T23:53:11.703Z,100.00
2022-10-19T23:55:39.536Z,100.00
2022-10-19T23:58:07.323Z,100.00
